Time;durP1;ratioP1;P1;durP2;ratioP2;P2;SDS_P1;SDS_P2;PMS_P1;PMS_P2;Temp;Humidity;BMP_temperature;BMP_pressure;BME280_temperature;BME280_humidity;BME280_pressure;Samples;Min_cycle;Max_cycle;Signal;HPM_P1;HPM_P2
2022/05/24 00:00:37;;;;;;;11.70;9.02;;;14.70;99.90;;;;;;4974486;28;20027;-29
2022/05/24 00:03:03;;;;;;;18.55;9.80;;;14.60;99.90;;;;;;4970570;28;20379;-34
2022/05/24 00:05:31;;;;;;;19.35;9.40;;;14.60;99.90;;;;;;4970443;28;20118;-29
2022/05/24 00:07:57;;;;;;;13.40;7.57;;;14.60;99.90;;;;;;4972184;28;20023;-34
2022/05/24 00:10:29;;;;;;;19.67;9.05;;;14.60;99.90;;;;;;4973456;28;20468;-34
2022/05/24 00:12:56;;;;;;;18.25;8.73;;;14.70;99.90;;;;;;4973739;28;20035;-33
2022/05/24 00:15:24;;;;;;;19.70;9.50;;;14.70;99.90;;;;;;4972086;28;20062;-29
2022/05/24 00:17:51;;;;;;;17.10;7.95;;;14.70;99.90;;;;;;4971005;28;20032;-28
2022/05/24 00:20:17;;;;;;;16.55;10.02;;;14.70;99.90;;;;;;4973726;28;20035;-33
2022/05/24 00:22:43;;;;;;;12.63;8.50;;;14.80;99.90;;;;;;4971232;28;20440;-31
2022/05/24 00:25:09;;;;;;;18.63;8.68;;;14.70;99.90;;;;;;4973389;28;20039;-33
2022/05/24 00:27:35;;;;;;;15.63;8.35;;;14.70;99.90;;;;;;4973525;28;20023;-33
2022/05/24 00:30:01;;;;;;;12.20;8.00;;;14.70;99.90;;;;;;4973333;28;20108;-34
2022/05/24 00:32:26;;;;;;;13.85;6.47;;;14.80;99.90;;;;;;4973896;28;20034;-28
2022/05/24 00:34:52;;;;;;;16.02;7.32;;;14.70;99.90;;;;;;4972113;28;20031;-35
2022/05/24 00:37:22;;;;;;;11.68;7.35;;;14.70;99.90;;;;;;4973343;28;20035;-32
2022/05/24 00:39:47;;;;;;;10.68;5.72;;;14.70;99.90;;;;;;4977016;28;20030;-29
2022/05/24 00:42:19;;;;;;;11.23;6.90;;;14.70;99.90;;;;;;4977731;28;20415;-38
2022/05/24 00:44:53;;;;;;;12.23;5.72;;;14.70;99.90;;;;;;4976822;28;20038;-35
2022/05/24 00:47:41;;;;;;;15.65;6.70;;;14.70;99.90;;;;;;4976494;28;20030;-37
2022/05/24 00:50:31;;;;;;;11.23;7.50;;;14.70;99.90;;;;;;4977602;28;20042;-37
2022/05/24 00:53:12;;;;;;;14.20;7.05;;;14.70;99.90;;;;;;4977801;28;20505;-37
2022/05/24 00:55:51;;;;;;;16.48;8.93;;;14.70;99.90;;;;;;4977210;28;20015;-37
2022/05/24 00:58:40;;;;;;;23.67;11.20;;;14.70;99.90;;;;;;4974798;28;20107;-40
2022/05/24 01:01:23;;;;;;;19.42;10.80;;;14.70;99.90;;;;;;4958274;28;20463;-36
2022/05/24 01:03:49;;;;;;;18.67;10.13;;;14.70;99.90;;;;;;4974912;28;20102;-37
2022/05/24 01:06:15;;;;;;;19.25;9.63;;;14.60;99.90;;;;;;4975257;28;20436;-37
2022/05/24 01:08:41;;;;;;;22.35;11.68;;;14.60;99.90;;;;;;4976317;28;20022;-38
2022/05/24 01:11:10;;;;;;;20.60;9.65;;;14.60;99.90;;;;;;4974737;28;20034;-36
2022/05/24 01:13:38;;;;;;;22.05;9.48;;;14.60;99.90;;;;;;4977453;28;20475;-42
2022/05/24 01:16:04;;;;;;;19.75;9.38;;;14.50;99.90;;;;;;4976623;28;20035;-52
2022/05/24 01:18:30;;;;;;;21.55;9.15;;;14.50;99.90;;;;;;4974657;28;20033;-38
2022/05/24 01:21:08;;;;;;;18.50;8.30;;;14.40;99.90;;;;;;4970668;28;20038;-37
2022/05/24 01:23:55;;;;;;;18.05;7.97;;;14.40;99.90;;;;;;4973450;28;20035;-37
2022/05/24 01:26:34;;;;;;;12.32;5.28;;;14.30;99.90;;;;;;4976294;28;20157;-38
2022/05/24 01:29:04;;;;;;;14.80;6.10;;;14.30;99.90;;;;;;4975103;28;20525;-38
2022/05/24 01:36:59;;;;;;;13.35;5.82;;;14.10;99.90;;;;;;4976366;28;20042;-37
2022/05/24 01:39:24;;;;;;;11.55;4.93;;;14.10;99.90;;;;;;4975814;28;20019;-36
2022/05/24 01:41:51;;;;;;;7.90;4.03;;;14.10;99.90;;;;;;4975451;28;20089;-36
2022/05/24 01:44:32;;;;;;;11.65;4.25;;;14.10;99.90;;;;;;4974005;28;20553;-43
2022/05/24 01:46:59;;;;;;;9.30;4.32;;;14.10;99.90;;;;;;4976226;28;20023;-36
2022/05/24 01:49:28;;;;;;;8.37;4.13;;;14.00;99.90;;;;;;4974522;28;20027;-37
2022/05/24 01:52:17;;;;;;;11.27;4.75;;;14.00;99.90;;;;;;4976015;28;20475;-37
2022/05/24 01:54:48;;;;;;;8.60;4.30;;;14.00;99.90;;;;;;4976728;28;20479;-37
2022/05/24 01:57:20;;;;;;;10.05;4.25;;;14.00;99.90;;;;;;4973093;28;20027;-36
2022/05/24 01:59:49;;;;;;;12.13;4.93;;;14.00;99.90;;;;;;4974458;28;20027;-34
2022/05/24 02:02:15;;;;;;;7.13;3.88;;;14.00;99.90;;;;;;4974486;28;20557;-37
2022/05/24 02:04:43;;;;;;;10.15;3.33;;;13.90;99.90;;;;;;4975789;28;20034;-36
2022/05/24 02:07:23;;;;;;;7.97;3.22;;;13.90;99.90;;;;;;4973144;28;20062;-38
2022/05/24 02:09:55;;;;;;;12.85;3.20;;;13.90;99.90;;;;;;4974328;28;20449;-36
2022/05/24 02:12:27;;;;;;;11.65;4.55;;;13.90;99.90;;;;;;4976202;28;20162;-36
2022/05/24 02:15:04;;;;;;;15.82;3.72;;;13.90;99.90;;;;;;4970985;28;20130;-35
2022/05/24 02:17:39;;;;;;;14.45;3.50;;;13.90;99.90;;;;;;4970881;28;20035;-35
2022/05/24 02:20:09;;;;;;;7.03;4.28;;;13.90;99.90;;;;;;4975212;28;20062;-37
2022/05/24 02:22:37;;;;;;;12.38;4.25;;;13.90;99.90;;;;;;4975542;28;20031;-37
2022/05/24 02:25:24;;;;;;;11.70;4.00;;;13.90;99.90;;;;;;4973196;28;20105;-37
2022/05/24 02:27:51;;;;;;;11.55;4.50;;;13.90;99.90;;;;;;4987436;28;20046;-35
2022/05/24 02:30:24;;;;;;;13.80;5.07;;;13.90;99.90;;;;;;4975888;28;20042;-35
2022/05/24 02:32:50;;;;;;;11.23;4.88;;;13.90;99.90;;;;;;4957092;28;20516;-36
2022/05/24 02:35:17;;;;;;;11.55;5.70;;;13.80;99.90;;;;;;4973916;28;20490;-35
2022/05/24 02:37:43;;;;;;;15.48;5.10;;;13.80;99.90;;;;;;4975956;28;20533;-37
2022/05/24 02:42:54;;;;;;;10.63;5.85;;;13.80;99.90;;;;;;4974758;28;20037;-38
2022/05/24 02:45:20;;;;;;;16.15;5.68;;;13.80;99.90;;;;;;4974681;28;20023;-50
2022/05/24 02:47:46;;;;;;;12.35;5.55;;;13.80;99.90;;;;;;4974966;28;20023;-59
2022/05/24 02:50:12;;;;;;;9.63;5.95;;;13.80;99.90;;;;;;4975631;28;20031;-38
2022/05/24 02:52:39;;;;;;;13.10;5.80;;;13.80;99.90;;;;;;4973292;28;20019;-37
2022/05/24 02:55:06;;;;;;;16.98;6.57;;;13.70;99.90;;;;;;4966602;28;20483;-35
2022/05/24 02:57:31;;;;;;;11.65;6.30;;;13.80;99.90;;;;;;4975342;28;20475;-36
2022/05/24 02:59:57;;;;;;;12.98;6.07;;;13.80;99.90;;;;;;4975235;28;20023;-37
2022/05/24 03:02:23;;;;;;;11.13;6.45;;;13.80;99.90;;;;;;4973627;28;20026;-35
2022/05/24 03:04:48;;;;;;;18.08;5.68;;;13.80;99.90;;;;;;4973070;28;20030;-36
2022/05/24 03:09:58;;;;;;;11.35;5.90;;;13.80;99.90;;;;;;4972398;28;20447;-36
2022/05/24 03:15:08;;;;;;;12.95;5.32;;;13.80;99.90;;;;;;4973827;28;20513;-34
2022/05/24 03:17:34;;;;;;;14.90;5.88;;;13.80;99.90;;;;;;4970567;28;20050;-35
2022/05/24 03:19:59;;;;;;;13.98;6.20;;;13.80;99.90;;;;;;4971955;28;20459;-36
2022/05/24 03:22:25;;;;;;;15.20;5.88;;;13.80;99.90;;;;;;4973847;28;20517;-37
2022/05/24 03:24:51;;;;;;;12.80;6.20;;;13.80;99.90;;;;;;4974131;28;20042;-36
2022/05/24 03:27:16;;;;;;;19.00;6.50;;;13.70;99.90;;;;;;4974468;28;20529;-37
2022/05/24 03:29:44;;;;;;;13.38;5.70;;;13.70;99.90;;;;;;4966093;28;20111;-36
2022/05/24 03:32:12;;;;;;;15.90;7.00;;;13.70;99.90;;;;;;4975199;28;20442;-37
2022/05/24 03:34:38;;;;;;;19.50;6.95;;;13.60;99.90;;;;;;4974943;28;20506;-36
2022/05/24 03:37:04;;;;;;;14.18;6.45;;;13.60;99.90;;;;;;4972396;28;20023;-36
2022/05/24 03:39:31;;;;;;;12.20;6.13;;;13.70;99.90;;;;;;4971269;28;20022;-36
2022/05/24 03:41:57;;;;;;;12.35;6.50;;;13.70;99.90;;;;;;4974110;28;20038;-36
2022/05/24 03:44:22;;;;;;;13.00;6.07;;;13.70;99.90;;;;;;4973228;28;20046;-46
2022/05/24 03:46:48;;;;;;;12.73;6.15;;;13.70;99.90;;;;;;4971220;28;20102;-37
2022/05/24 03:49:14;;;;;;;13.48;6.15;;;13.70;99.90;;;;;;4974675;28;20031;-35
2022/05/24 03:51:40;;;;;;;15.27;6.97;;;13.70;99.90;;;;;;4974609;28;20042;-36
2022/05/24 03:54:07;;;;;;;16.38;6.78;;;13.60;99.90;;;;;;4973418;28;20027;-35
2022/05/24 03:56:33;;;;;;;19.50;8.30;;;13.60;99.90;;;;;;4973427;28;20030;-37
2022/05/24 03:58:59;;;;;;;16.83;8.13;;;13.60;99.90;;;;;;4974624;28;20046;-28
2022/05/24 04:01:25;;;;;;;23.98;9.02;;;13.60;99.90;;;;;;4971374;28;20035;-28
2022/05/24 04:03:50;;;;;;;15.85;7.47;;;13.60;99.90;;;;;;4972412;28;20035;-33
2022/05/24 04:06:16;;;;;;;18.60;6.53;;;13.60;99.90;;;;;;4970423;28;20035;-31
2022/05/24 04:08:42;;;;;;;14.93;7.55;;;13.60;99.90;;;;;;4972515;28;20030;-28
2022/05/24 04:11:10;;;;;;;19.50;7.00;;;13.60;99.90;;;;;;4972667;28;20023;-29
2022/05/24 04:13:38;;;;;;;15.88;7.25;;;13.70;99.90;;;;;;4971626;28;20454;-30
2022/05/24 04:16:05;;;;;;;20.15;9.32;;;13.70;99.90;;;;;;4973474;28;20522;-29
2022/05/24 04:18:30;;;;;;;16.65;7.38;;;13.70;99.90;;;;;;4972088;28;20434;-28
2022/05/24 04:20:56;;;;;;;17.77;7.57;;;13.70;99.90;;;;;;4972265;28;20027;-33
2022/05/24 04:23:25;;;;;;;17.00;7.45;;;13.70;99.90;;;;;;4971918;28;20039;-34
2022/05/24 04:25:51;;;;;;;21.42;7.80;;;13.80;99.90;;;;;;4972795;28;20495;-32
2022/05/24 04:28:20;;;;;;;17.80;8.02;;;13.80;99.90;;;;;;4972897;28;20491;-29
2022/05/24 04:30:53;;;;;;;17.40;7.65;;;13.80;99.90;;;;;;4974489;28;20023;-29
2022/05/24 04:33:18;;;;;;;14.15;8.07;;;13.80;99.90;;;;;;4974051;28;20395;-33
2022/05/24 04:35:44;;;;;;;17.00;8.02;;;13.80;99.90;;;;;;4974196;28;20031;-31
2022/05/24 04:38:10;;;;;;;15.68;8.07;;;13.70;99.90;;;;;;4972313;28;20023;-30
2022/05/24 04:43:21;;;;;;;19.55;9.73;;;13.70;99.90;;;;;;4974374;28;20570;-29
2022/05/24 04:45:46;;;;;;;17.42;8.80;;;13.80;99.90;;;;;;4969077;28;20092;-30
2022/05/24 04:48:12;;;;;;;18.48;9.07;;;13.80;99.90;;;;;;4971811;28;20114;-29
2022/05/24 04:50:38;;;;;;;21.23;9.43;;;13.70;99.90;;;;;;4972805;28;20025;-30
2022/05/24 04:53:06;;;;;;;21.40;9.27;;;13.70;99.90;;;;;;4972362;28;20023;-33
2022/05/24 04:55:32;;;;;;;19.55;9.48;;;13.70;99.90;;;;;;4973195;28;20606;-38
2022/05/24 04:57:58;;;;;;;15.65;8.75;;;13.60;99.90;;;;;;4973996;28;20498;-39
2022/05/24 05:00:24;;;;;;;18.55;9.05;;;13.60;99.90;;;;;;4973888;28;20027;-42
2022/05/24 05:02:50;;;;;;;18.77;8.10;;;13.60;99.90;;;;;;4971208;28;20038;-38
2022/05/24 05:05:16;;;;;;;20.40;8.23;;;13.60;99.90;;;;;;4967736;28;20644;-42
2022/05/24 05:07:42;;;;;;;13.55;7.97;;;13.60;99.90;;;;;;4973901;28;20027;-39
2022/05/24 05:10:09;;;;;;;15.65;7.78;;;13.60;99.90;;;;;;4971036;28;20034;-35
2022/05/24 05:12:35;;;;;;;16.30;7.88;;;13.70;99.90;;;;;;4973075;28;20126;-35
2022/05/24 05:15:03;;;;;;;16.02;6.82;;;13.70;99.90;;;;;;4971903;28;20037;-38
2022/05/24 05:17:28;;;;;;;11.05;5.90;;;13.60;99.90;;;;;;4970273;28;20066;-36
2022/05/24 05:19:54;;;;;;;17.77;5.57;;;13.60;99.90;;;;;;4971410;28;20495;-53
2022/05/24 05:22:23;;;;;;;14.90;5.60;;;13.60;99.90;;;;;;4971928;28;20031;-39
2022/05/24 05:24:50;;;;;;;12.77;5.47;;;13.60;99.90;;;;;;4974532;28;20058;-37
2022/05/24 05:27:15;;;;;;;16.58;5.75;;;13.60;99.90;;;;;;4962083;28;20023;-38
2022/05/24 05:32:32;;;;;;;8.82;3.92;;;13.60;99.90;;;;;;4975066;28;20066;-35
2022/05/24 05:34:59;;;;;;;11.75;3.88;;;13.60;99.90;;;;;;4975311;28;20027;-36
2022/05/24 05:37:28;;;;;;;12.48;4.10;;;13.60;99.90;;;;;;4959497;28;20458;-36
2022/05/24 05:39:55;;;;;;;7.20;3.30;;;13.60;99.90;;;;;;4962664;28;20097;-37
2022/05/24 05:42:20;;;;;;;10.20;3.95;;;13.60;99.90;;;;;;4972595;28;20495;-36
2022/05/24 05:44:49;;;;;;;5.75;3.15;;;13.60;99.90;;;;;;4975947;28;20043;-36
2022/05/24 05:47:16;;;;;;;12.25;3.10;;;13.60;99.90;;;;;;4976018;28;20027;-38
2022/05/24 05:49:41;;;;;;;10.18;3.72;;;13.60;99.90;;;;;;4976193;28;20031;-37
2022/05/24 05:52:07;;;;;;;10.63;3.38;;;13.60;99.90;;;;;;4975527;28;20455;-37
2022/05/24 05:54:33;;;;;;;3.85;2.72;;;13.60;99.90;;;;;;4975930;28;20066;-36
2022/05/24 05:57:05;;;;;;;10.48;3.10;;;13.60;99.90;;;;;;4975480;28;20058;-36
2022/05/24 05:59:30;;;;;;;6.15;3.08;;;13.60;99.90;;;;;;4972109;28;20486;-37
2022/05/24 06:02:00;;;;;;;10.80;3.88;;;13.60;99.90;;;;;;4976596;28;20030;-37
2022/05/24 06:04:26;;;;;;;13.38;3.20;;;13.70;99.90;;;;;;4976555;28;20031;-35
2022/05/24 06:06:53;;;;;;;7.72;3.50;;;13.70;99.90;;;;;;4971109;28;20030;-37
2022/05/24 06:09:19;;;;;;;7.28;2.42;;;13.60;99.90;;;;;;4973449;28;20086;-38
2022/05/24 06:11:45;;;;;;;8.73;3.05;;;13.70;99.90;;;;;;4972466;28;20037;-42
2022/05/24 06:14:10;;;;;;;11.82;3.10;;;13.70;99.90;;;;;;4973238;28;20022;-38
2022/05/24 06:16:37;;;;;;;7.65;3.42;;;13.80;99.90;;;;;;4975619;28;20058;-64
2022/05/24 06:19:04;;;;;;;5.60;2.85;;;13.70;99.90;;;;;;4979494;28;20026;-59
2022/05/24 06:21:33;;;;;;;8.55;3.70;;;13.70;99.90;;;;;;4978846;28;20034;-36
2022/05/24 06:24:03;;;;;;;5.47;3.30;;;13.80;99.90;;;;;;4978943;28;20033;-37
2022/05/24 06:26:29;;;;;;;9.20;3.88;;;13.70;99.90;;;;;;4978356;28;20038;-38
2022/05/24 06:28:57;;;;;;;11.52;4.70;;;13.70;99.90;;;;;;4975392;28;20039;-40
2022/05/24 06:31:23;;;;;;;9.70;4.55;;;13.80;99.90;;;;;;4969143;28;20479;-38
2022/05/24 06:33:49;;;;;;;10.52;4.93;;;13.80;99.90;;;;;;4971935;28;20070;-37
2022/05/24 06:36:14;;;;;;;10.98;4.65;;;13.90;99.90;;;;;;4973950;28;20029;-38
2022/05/24 06:38:40;;;;;;;9.40;4.00;;;14.10;99.90;;;;;;4974230;28;20471;-36
2022/05/24 06:41:06;;;;;;;10.25;5.00;;;14.40;99.90;;;;;;4975913;28;20026;-37
2022/05/24 06:43:35;;;;;;;9.85;4.28;;;14.70;99.90;;;;;;4974808;28;20061;-36
2022/05/24 06:46:07;;;;;;;11.23;4.45;;;15.00;99.90;;;;;;4973769;28;20031;-37
2022/05/24 06:48:37;;;;;;;5.28;3.95;;;15.10;99.90;;;;;;4971980;28;20027;-37
2022/05/24 06:51:15;;;;;;;9.43;4.30;;;15.10;99.90;;;;;;4972389;28;20483;-37
2022/05/24 06:53:42;;;;;;;;;;;15.00;99.90;;;;;;4973194;28;20126;-38
2022/05/24 06:56:08;;;;;;;9.82;3.75;;;15.10;99.90;;;;;;4967965;28;19910;-35
2022/05/24 06:58:35;;;;;;;7.45;3.05;;;15.10;99.90;;;;;;4971695;28;20026;-38
2022/05/24 07:03:47;;;;;;;6.03;3.80;;;15.20;99.90;;;;;;4973080;28;20034;-38
2022/05/24 07:06:15;;;;;;;8.05;3.53;;;15.60;99.90;;;;;;4970536;28;20142;-37
2022/05/24 07:08:44;;;;;;;9.82;3.50;;;15.50;99.90;;;;;;4972545;28;20388;-38
2022/05/24 07:11:11;;;;;;;6.45;3.35;;;15.40;99.90;;;;;;4973144;28;20029;-38
2022/05/24 07:13:38;;;;;;;4.03;2.63;;;15.10;99.90;;;;;;4974469;28;20027;-39
2022/05/24 07:16:04;;;;;;;4.75;2.88;;;14.90;99.90;;;;;;4973083;28;20500;-37
2022/05/24 07:18:29;;;;;;;5.28;2.40;;;14.70;99.90;;;;;;4964960;28;20109;-36
2022/05/24 07:20:55;;;;;;;8.75;3.15;;;14.70;99.90;;;;;;4969419;28;20029;-38
2022/05/24 07:23:24;;;;;;;4.15;2.33;;;15.00;99.90;;;;;;4963184;28;20030;-39
2022/05/24 07:25:51;;;;;;;8.15;2.38;;;15.50;99.90;;;;;;4975366;28;20495;-38
2022/05/24 07:28:17;;;;;;;9.18;2.55;;;15.60;99.90;;;;;;4973287;28;20093;-37
2022/05/24 07:30:46;;;;;;;5.95;2.45;;;15.60;99.90;;;;;;4963048;28;20031;-38
2022/05/24 07:33:12;;;;;;;5.35;2.20;;;15.50;99.90;;;;;;4974921;28;20043;-43
2022/05/24 07:35:39;;;;;;;4.10;2.10;;;15.60;99.90;;;;;;4974768;28;20015;-39
2022/05/24 07:38:09;;;;;;;6.38;2.42;;;15.70;99.90;;;;;;4970118;28;20023;-34
2022/05/24 07:46:09;;;;;;;4.43;2.58;;;16.60;99.90;;;;;;4973036;28;20058;-39
2022/05/24 07:48:35;;;;;;;4.68;2.15;;;16.80;99.90;;;;;;4972434;28;20031;-36
2022/05/24 07:51:02;;;;;;;3.28;1.63;;;17.00;99.90;;;;;;4973080;28;20391;-37
2022/05/24 07:53:27;;;;;;;4.07;2.00;;;17.10;99.90;;;;;;4972912;28;20037;-48
2022/05/24 07:55:54;;;;;;;2.88;1.92;;;17.10;99.90;;;;;;4970689;28;20030;-37
2022/05/24 07:58:20;;;;;;;4.90;2.08;;;16.90;99.90;;;;;;4974461;28;20033;-36
2022/05/24 08:00:47;;;;;;;3.05;1.98;;;16.40;99.90;;;;;;4973450;28;20058;-36
2022/05/24 08:03:12;;;;;;;2.00;1.75;;;16.10;99.90;;;;;;4974066;28;20037;-36
2022/05/24 08:05:39;;;;;;;4.38;2.17;;;15.90;99.90;;;;;;4970822;28;20398;-36
2022/05/24 08:08:07;;;;;;;3.67;1.95;;;15.70;99.90;;;;;;4971793;28;20042;-36
2022/05/24 08:10:33;;;;;;;1.30;1.20;;;15.60;99.90;;;;;;4968695;28;20479;-36
2022/05/24 08:13:04;;;;;;;1.20;1.03;;;15.50;99.90;;;;;;4965139;28;20039;-36
2022/05/24 08:15:30;;;;;;;1.95;1.02;;;15.40;99.90;;;;;;4967088;28;20080;-36
2022/05/24 08:17:56;;;;;;;0.80;0.73;;;15.10;99.90;;;;;;4967640;28;20043;-36
2022/05/24 08:20:21;;;;;;;5.55;1.45;;;15.20;99.90;;;;;;4968884;28;20443;-37
2022/05/24 08:22:47;;;;;;;2.67;1.13;;;15.10;99.90;;;;;;4965173;28;20027;-35
2022/05/24 08:25:14;;;;;;;5.00;1.65;;;15.10;99.90;;;;;;4961904;28;20031;-35
2022/05/24 08:27:40;;;;;;;1.75;1.48;;;15.00;99.90;;;;;;4964885;28;20027;-36
2022/05/24 08:30:06;;;;;;;2.70;1.33;;;15.00;99.90;;;;;;4968490;28;20049;-36
2022/05/24 08:32:33;;;;;;;3.10;1.55;;;15.00;99.90;;;;;;4971796;28;20113;-38
2022/05/24 08:34:59;;;;;;;2.43;1.13;;;15.00;99.90;;;;;;4970158;28;20478;-43
2022/05/24 08:37:24;;;;;;;2.25;1.00;;;15.10;99.90;;;;;;4970010;28;20030;-37
2022/05/24 08:39:50;;;;;;;3.03;1.20;;;15.40;99.90;;;;;;4973102;28;20513;-37
2022/05/24 08:42:44;;;;;;;0.93;0.90;;;15.60;99.90;;;;;;4971256;28;20030;-36
2022/05/24 08:48:25;;;;;;;4.63;1.20;;;15.70;99.90;;;;;;4973837;28;20046;-37
2022/05/24 08:51:00;;;;;;;0.40;0.40;;;15.50;99.90;;;;;;4969026;28;20062;-36
2022/05/24 08:53:35;;;;;;;0.60;0.60;;;15.30;99.90;;;;;;4977260;28;20035;-38
2022/05/24 08:56:04;;;;;;;1.27;0.63;;;15.00;99.90;;;;;;4964307;28;20031;-38
2022/05/24 08:58:41;;;;;;;0.50;0.50;;;15.30;99.90;;;;;;4968420;28;20038;-40
2022/05/24 09:01:16;;;;;;;5.97;0.80;;;15.80;99.90;;;;;;4974460;28;20468;-36
2022/05/24 09:03:41;;;;;;;1.30;0.68;;;16.40;99.90;;;;;;4968702;28;20042;-36
2022/05/24 09:06:31;;;;;;;1.05;0.63;;;16.90;99.90;;;;;;4970693;28;20027;-37
2022/05/24 09:09:18;;;;;;;2.67;0.68;;;17.10;99.90;;;;;;4977185;28;20574;-38
2022/05/24 09:12:21;;;;;;;0.80;0.80;;;16.90;99.90;;;;;;4980144;28;20041;-37
2022/05/24 09:15:07;;;;;;;3.10;1.25;;;16.30;99.90;;;;;;4997034;28;20031;-39
2022/05/24 09:18:02;;;;;;;5.38;0.85;;;15.50;99.90;;;;;;4977110;28;20049;-39
2022/05/24 09:20:33;;;;;;;0.98;0.85;;;15.00;99.90;;;;;;4975844;28;20063;-42
2022/05/24 09:23:17;;;;;;;3.97;0.90;;;14.70;99.90;;;;;;4972303;28;21605;-37
2022/05/24 09:26:13;;;;;;;2.85;1.05;;;14.60;99.90;;;;;;4972886;28;20113;-39
2022/05/24 09:28:55;;;;;;;3.15;1.10;;;14.60;99.90;;;;;;4960121;28;20133;-37
2022/05/24 09:31:46;;;;;;;1.42;0.77;;;14.70;99.90;;;;;;4975576;28;20149;-38
2022/05/24 09:34:18;;;;;;;2.53;0.90;;;14.80;99.90;;;;;;4971650;28;20029;-38
2022/05/24 09:36:55;;;;;;;11.48;1.40;;;14.70;99.90;;;;;;4971375;28;20027;-38
2022/05/24 09:39:25;;;;;;;1.77;1.30;;;14.90;99.90;;;;;;4975920;28;20042;-38
2022/05/24 09:42:02;;;;;;;4.28;1.25;;;15.40;99.90;;;;;;4977140;28;20850;-38
2022/05/24 09:44:41;;;;;;;1.43;1.20;;;15.90;99.90;;;;;;4972961;28;20089;-41
2022/05/24 09:47:22;;;;;;;3.03;2.65;;;16.60;99.90;;;;;;4974841;28;20502;-38
2022/05/24 09:49:49;;;;;;;1.65;1.55;;;17.00;99.90;;;;;;4970666;28;20031;-38
2022/05/24 09:52:15;;;;;;;6.07;1.20;;;17.50;99.90;;;;;;4975310;28;20030;-39
2022/05/24 09:54:56;;;;;;;4.10;2.03;;;17.30;99.90;;;;;;4974195;28;20053;-36
2022/05/24 09:57:28;;;;;;;1.67;0.80;;;16.80;99.90;;;;;;4971647;28;20023;-36
2022/05/24 10:00:20;;;;;;;3.20;1.10;;;16.30;99.90;;;;;;4972832;28;20386;-38
2022/05/24 10:02:47;;;;;;;3.03;1.65;;;15.70;99.90;;;;;;4974819;28;20077;-38
2022/05/24 10:05:19;;;;;;;1.77;0.60;;;15.20;99.90;;;;;;4969964;28;20031;-37
2022/05/24 10:07:56;;;;;;;1.33;1.10;;;14.70;99.90;;;;;;4974063;28;20160;-45
2022/05/24 10:10:28;;;;;;;3.43;1.13;;;14.40;99.90;;;;;;4976142;28;20476;-39
2022/05/24 10:13:01;;;;;;;0.90;0.90;;;14.20;99.90;;;;;;4975371;28;20046;-40
2022/05/24 10:15:43;;;;;;;3.58;1.08;;;14.00;99.90;;;;;;4974199;28;20387;-39
2022/05/24 10:18:30;;;;;;;0.70;0.70;;;13.80;99.90;;;;;;4976904;28;20096;-41
2022/05/24 10:21:07;;;;;;;1.38;1.05;;;13.80;99.90;;;;;;5002412;28;20486;-38
2022/05/24 10:23:59;;;;;;;4.53;1.65;;;13.80;99.90;;;;;;4975991;28;20081;-39
2022/05/24 10:27:21;;;;;;;1.58;1.17;;;13.90;99.90;;;;;;4973368;28;20594;-38
2022/05/24 10:30:08;;;;;;;1.08;0.90;;;14.10;99.90;;;;;;4915467;29;20540;-38
2022/05/24 10:38:45;;;;;;;5.03;1.67;;;15.00;99.90;;;;;;4965155;28;20045;-37
2022/05/24 10:41:30;;;;;;;3.00;1.25;;;15.20;99.90;;;;;;4967824;28;20023;-34
2022/05/24 10:44:05;;;;;;;1.50;1.40;;;15.20;99.90;;;;;;4962729;28;20035;-36
2022/05/24 10:47:02;;;;;;;5.18;2.33;;;15.20;99.90;;;;;;4964965;28;20594;-32
2022/05/24 10:49:49;;;;;;;3.63;2.15;;;15.20;99.90;;;;;;4965401;28;20086;-36
2022/05/24 10:52:37;;;;;;;7.47;1.75;;;15.30;99.90;;;;;;4964005;28;20495;-36
2022/05/24 10:55:19;;;;;;;3.92;1.63;;;15.50;99.90;;;;;;4960206;28;20039;-42
2022/05/24 10:57:55;;;;;;;7.55;1.90;;;15.90;99.90;;;;;;4962514;28;20035;-37
2022/05/24 11:00:24;;;;;;;4.45;2.05;;;16.10;99.90;;;;;;4961223;28;20035;-37
2022/05/24 11:03:02;;;;;;;2.78;2.13;;;16.00;99.90;;;;;;4959743;28;20039;-45
2022/05/24 11:05:37;;;;;;;6.57;1.90;;;16.10;99.90;;;;;;4963440;28;20047;-38
2022/05/24 11:08:43;;;;;;;2.17;1.75;;;16.30;99.90;;;;;;4960124;28;20039;-36
2022/05/24 11:11:34;;;;;;;8.13;2.00;;;16.60;99.90;;;;;;4972533;28;20039;-37
2022/05/24 11:14:22;;;;;;;5.78;1.73;;;16.30;99.90;;;;;;4967415;28;20071;-37
2022/05/24 11:16:50;;;;;;;8.93;2.20;;;16.10;99.90;;;;;;4967312;28;20514;-38
2022/05/24 11:19:39;;;;;;;7.82;1.92;;;16.00;99.90;;;;;;4975241;28;20039;-36
2022/05/24 11:22:22;;;;;;;6.50;1.40;;;15.70;99.90;;;;;;4968381;28;20059;-39
2022/05/24 11:25:06;;;;;;;2.60;1.20;;;15.50;99.90;;;;;;4955472;28;20029;-39
2022/05/24 11:27:58;;;;;;;3.42;1.15;;;15.90;99.90;;;;;;4955812;29;20035;-40
2022/05/24 11:30:29;;;;;;;5.60;1.35;;;16.50;99.90;;;;;;4959243;28;20416;-38
2022/05/24 11:33:07;;;;;;;3.00;1.60;;;16.70;99.90;;;;;;4970694;28;20066;-37
2022/05/24 11:35:35;;;;;;;6.72;1.80;;;16.60;99.90;;;;;;4975253;28;20023;-36
2022/05/24 11:38:13;;;;;;;;;;;16.60;99.90;;;;;;4975369;28;20098;-37
2022/05/24 11:41:01;;;;;;;3.38;1.15;;;16.40;99.90;;;;;;4972065;28;19910;-37
2022/05/24 11:43:36;;;;;;;4.15;1.10;;;16.00;99.90;;;;;;4971278;28;20049;-34
2022/05/24 11:46:07;;;;;;;5.30;1.92;;;15.70;99.90;;;;;;4974800;28;20081;-39
2022/05/24 11:48:41;;;;;;;1.80;1.30;;;15.50;99.90;;;;;;4973843;28;20041;-36
2022/05/24 11:51:41;;;;;;;1.15;0.90;;;15.40;99.90;;;;;;4970474;28;20069;-37
2022/05/24 11:54:30;;;;;;;2.38;1.20;;;15.20;99.90;;;;;;4936133;28;20043;-34
2022/05/24 11:57:02;;;;;;;5.20;1.10;;;15.00;99.90;;;;;;4960342;28;20034;-44
2022/05/24 11:59:48;;;;;;;1.55;1.27;;;15.00;99.90;;;;;;4966584;28;20053;-31
2022/05/24 12:02:26;;;;;;;5.47;1.83;;;15.00;99.90;;;;;;4972277;28;20391;-37
2022/05/24 12:08:22;;;;;;;1.92;0.98;;;14.90;99.90;;;;;;4966613;28;20414;-37
2022/05/24 12:10:55;;;;;;;4.40;1.08;;;14.90;99.90;;;;;;4959584;28;20026;-41
2022/05/24 12:13:27;;;;;;;2.30;1.05;;;14.90;99.90;;;;;;4964542;28;20031;-36
2022/05/24 12:15:56;;;;;;;1.98;1.20;;;15.10;99.90;;;;;;4969627;28;20039;-41
2022/05/24 12:18:33;;;;;;;1.95;1.15;;;15.20;99.90;;;;;;4967990;28;20023;-36
2022/05/24 12:20:59;;;;;;;5.28;1.48;;;15.40;99.90;;;;;;4971475;28;20030;-36
2022/05/24 12:23:31;;;;;;;2.35;1.20;;;15.50;99.90;;;;;;4969113;28;20161;-36
2022/05/24 12:26:12;;;;;;;2.22;1.15;;;16.10;99.90;;;;;;4981981;28;20042;-36
2022/05/24 12:28:37;;;;;;;3.90;1.00;;;16.90;99.90;;;;;;4969476;28;20027;-36
2022/05/24 12:31:21;;;;;;;2.78;1.00;;;17.40;99.90;;;;;;4969210;28;20030;-35
2022/05/24 12:33:52;;;;;;;3.20;0.90;;;17.50;99.90;;;;;;4969415;28;20486;-36
2022/05/24 12:36:40;;;;;;;2.45;1.10;;;17.30;99.90;;;;;;4966470;28;20023;-37
2022/05/24 12:39:08;;;;;;;2.42;0.85;;;16.90;99.90;;;;;;4965756;28;20027;-35
2022/05/24 12:42:02;;;;;;;3.13;0.70;;;16.80;99.90;;;;;;4962334;28;20030;-36
2022/05/24 12:44:45;;;;;;;2.85;0.75;;;16.80;99.90;;;;;;4973463;28;20035;-35
2022/05/24 12:47:10;;;;;;;2.17;1.20;;;17.30;99.90;;;;;;4963140;28;20031;-36
2022/05/24 12:49:58;;;;;;;4.60;1.27;;;18.10;99.90;;;;;;4966105;28;20054;-35
2022/05/24 12:52:27;;;;;;;0.95;0.60;;;18.20;99.90;;;;;;4968236;28;20379;-36
2022/05/24 12:54:53;;;;;;;3.20;0.80;;;18.20;99.90;;;;;;4967892;28;20360;-35
2022/05/24 12:57:23;;;;;;;3.10;0.50;;;18.40;99.90;;;;;;4969144;28;20031;-38
2022/05/24 13:00:07;;;;;;;0.88;0.70;;;18.70;99.90;;;;;;4967064;28;20030;-33
2022/05/24 13:02:39;;;;;;;0.70;0.70;;;18.90;99.90;;;;;;4971387;28;20030;-33
2022/05/24 13:05:07;;;;;;;2.40;0.70;;;18.60;99.90;;;;;;4969650;28;20483;-37
2022/05/24 13:07:41;;;;;;;1.38;0.47;;;18.10;99.90;;;;;;4967283;28;20027;-36
2022/05/24 13:10:13;;;;;;;0.73;0.40;;;17.90;99.90;;;;;;4969987;28;20088;-37
2022/05/24 13:12:41;;;;;;;0.35;0.28;;;17.60;99.90;;;;;;4968692;28;20026;-36
2022/05/24 13:15:15;;;;;;;1.30;0.40;;;17.50;99.90;;;;;;4969393;28;20023;-35
2022/05/24 13:17:44;;;;;;;1.23;0.38;;;17.70;99.90;;;;;;4969220;28;20037;-36
2022/05/24 13:20:19;;;;;;;1.05;1.00;;;18.10;99.90;;;;;;4970725;28;20029;-31
2022/05/24 13:22:48;;;;;;;0.77;0.55;;;18.50;99.90;;;;;;4969317;28;20069;-32
2022/05/24 13:25:42;;;;;;;2.08;0.38;;;18.70;99.90;;;;;;4984263;28;20042;-36
2022/05/24 13:28:09;;;;;;;1.75;0.77;;;18.40;99.90;;;;;;4945755;28;20518;-36
2022/05/24 13:33:35;;;;;;;4.50;0.63;;;18.00;99.90;;;;;;4967243;28;20119;-36
2022/05/24 13:36:15;;;;;;;;;;;17.70;99.90;;;;;;4968698;28;20041;-36
2022/05/24 13:38:42;;;;;;;0.75;0.60;;;17.60;99.90;;;;;;4969218;28;20273;-38
2022/05/24 13:41:10;;;;;;;0.77;0.40;;;17.50;99.90;;;;;;4968032;28;20105;-37
2022/05/24 13:43:42;;;;;;;0.70;0.40;;;17.40;99.90;;;;;;4970440;28;20794;-37
2022/05/24 13:46:28;;;;;;;0.30;0.30;;;17.60;99.90;;;;;;4967805;28;20023;-36
2022/05/24 13:48:58;;;;;;;0.65;0.30;;;17.70;99.90;;;;;;4969941;28;20498;-37